Vanleer, Tennessee
Current Conditions -  °F | °C
As of 11:52 AM on Monday 22 Dec 2014 (Local Time) from KCKV Reporting Station
Overcast Overcast  
Wind Chill: 52°   Ceiling: 1700
Heat Index: 52°   Visibility: 10mi
Dew Point: 46°   Wind: 13mph
Humidity: 80%   Direction: 150°SSE
Pressure: 29.8"   Gusts: NA
Location:  36.24°N, 87.44°W
Report Text: KCKV 221752Z AUTO 15011KT 10SM OVC017 11/08 A2980 RMK AO2 SLP093 T01110078 10117 20072 58030
Loading
Personal Weather Stations






























Interactive Weather Map New forecast layout! Learn more

10-Day Weather Forecast

Advertisements
Track Severe Weather on mobile